Time;durP1;ratioP1;P1;durP2;ratioP2;P2;SDS_P1;SDS_P2;PMS_P1;PMS_P2;Temp;Humidity;BMP_temperature;BMP_pressure;BME280_temperature;BME280_humidity;BME280_pressure;Samples;Min_cycle;Max_cycle;Signal;HPM_P1;HPM_P2
2023/10/08 00:02:05;;;;;;;26.10;15.75;;;;;;;;;;5091407;28;20063;-70
2023/10/08 00:04:44;;;;;;;30.25;15.70;;;;;;;;;;5091018;28;20060;-70
2023/10/08 00:07:10;;;;;;;23.75;15.50;;;;;;;;;;5091059;28;20032;-70
2023/10/08 00:09:36;;;;;;;26.88;16.17;;;;;;;;;;5091380;28;20027;-71
2023/10/08 00:12:05;;;;;;;26.33;16.13;;;;;;;;;;5091583;28;20031;-71
2023/10/08 00:14:43;;;;;;;24.15;16.08;;;;;;;;;;5092783;28;20035;-70
2023/10/08 00:17:10;;;;;;;19.48;13.75;;;;;;;;;;5094825;28;20035;-70
2023/10/08 00:19:39;;;;;;;23.30;13.32;;;;;;;;;;5093286;28;20153;-69
2023/10/08 00:22:06;;;;;;;21.92;14.40;;;;;;;;;;5092971;28;20417;-70
2023/10/08 00:24:33;;;;;;;22.60;14.13;;;;;;;;;;5094794;28;20016;-70
2023/10/08 00:27:00;;;;;;;23.73;14.02;;;;;;;;;;5093914;28;20126;-71
2023/10/08 00:29:26;;;;;;;20.83;15.02;;;;;;;;;;5093431;28;20025;-71
2023/10/08 00:31:56;;;;;;;22.95;14.20;;;;;;;;;;5093748;28;20036;-71
2023/10/08 00:34:29;;;;;;;19.75;13.45;;;;;;;;;;5093650;28;20180;-70
2023/10/08 00:36:55;;;;;;;18.73;12.90;;;;;;;;;;5094459;28;20048;-71
2023/10/08 00:39:24;;;;;;;18.45;13.35;;;;;;;;;;5094921;28;20385;-71
2023/10/08 00:41:54;;;;;;;19.92;12.85;;;;;;;;;;5093077;28;20062;-69
2023/10/08 00:44:28;;;;;;;17.63;12.48;;;;;;;;;;5093308;28;20064;-70
2023/10/08 00:46:56;;;;;;;18.17;12.27;;;;;;;;;;5093846;28;20040;-71
2023/10/08 00:49:24;;;;;;;21.30;13.13;;;;;;;;;;5093535;28;20024;-70
2023/10/08 00:57:23;;;;;;;20.40;13.02;;;;;;;;;;5093423;28;20507;-71
2023/10/08 00:59:56;;;;;;;21.90;13.05;;;;;;;;;;5094925;28;20396;-70
2023/10/08 01:02:28;;;;;;;20.55;13.35;;;;;;;;;;5093745;28;20058;-72
2023/10/08 01:04:56;;;;;;;24.40;13.98;;;;;;;;;;5094556;28;20501;-69
2023/10/08 01:07:23;;;;;;;21.92;14.00;;;;;;;;;;5095274;28;20424;-70
2023/10/08 01:09:59;;;;;;;19.85;13.70;;;;;;;;;;5110483;28;20036;-70
2023/10/08 01:13:14;;;;;;;20.58;12.40;;;;;;;;;;5094662;28;20547;-71
2023/10/08 01:15:23;;;;;;;18.15;13.00;;;;;;;;;;5087468;28;20523;-71
2023/10/08 01:17:58;;;;;;;20.67;12.68;;;;;;;;;;5093263;28;20031;-71
2023/10/08 01:20:33;;;;;;;19.33;13.57;;;;;;;;;;5093157;28;20067;-71
2023/10/08 01:23:03;;;;;;;20.50;13.15;;;;;;;;;;5094530;28;20502;-71
2023/10/08 01:25:30;;;;;;;21.33;13.13;;;;;;;;;;5093863;28;20031;-71
2023/10/08 01:28:00;;;;;;;21.25;14.48;;;;;;;;;;5092969;28;20028;-71
2023/10/08 01:30:34;;;;;;;19.15;13.27;;;;;;;;;;5093005;28;20039;-71
2023/10/08 01:33:02;;;;;;;;;;;;;;;;;;5093514;28;20117;-70
2023/10/08 01:35:31;;;;;;;21.58;12.75;;;;;;;;;;5093097;28;19908;-71
2023/10/08 01:37:59;;;;;;;21.98;13.77;;;;;;;;;;5092836;28;20044;-70
2023/10/08 01:40:26;;;;;;;18.23;13.07;;;;;;;;;;5094025;28;20439;-70
2023/10/08 01:42:52;;;;;;;25.10;14.52;;;;;;;;;;5093920;28;20051;-70
2023/10/08 01:45:19;;;;;;;18.88;13.35;;;;;;;;;;5093418;28;20519;-71
2023/10/08 01:47:45;;;;;;;20.48;13.13;;;;;;;;;;5090772;28;20024;-70
2023/10/08 01:50:27;;;;;;;19.77;12.52;;;;;;;;;;5088080;28;20107;-70
2023/10/08 01:52:53;;;;;;;23.63;13.90;;;;;;;;;;5089944;28;20028;-70
2023/10/08 01:55:19;;;;;;;18.90;12.50;;;;;;;;;;5091365;28;20026;-70
2023/10/08 01:57:46;;;;;;;22.55;13.05;;;;;;;;;;5092720;28;20148;-70
2023/10/08 02:00:14;;;;;;;20.45;13.57;;;;;;;;;;5091859;28;20027;-71
2023/10/08 02:02:43;;;;;;;21.63;13.85;;;;;;;;;;5093208;28;20111;-71
2023/10/08 02:05:09;;;;;;;20.58;12.95;;;;;;;;;;5090517;28;20047;-71
2023/10/08 02:07:35;;;;;;;20.75;12.85;;;;;;;;;;5090872;28;20039;-70
2023/10/08 02:10:01;;;;;;;19.52;12.55;;;;;;;;;;5090985;28;20080;-70
2023/10/08 02:12:26;;;;;;;22.65;13.60;;;;;;;;;;5092136;28;20032;-71
2023/10/08 02:14:52;;;;;;;18.95;12.43;;;;;;;;;;5093335;28;20036;-70
2023/10/08 02:17:19;;;;;;;22.73;12.38;;;;;;;;;;5089660;28;20119;-71
2023/10/08 02:19:45;;;;;;;22.73;14.20;;;;;;;;;;5089817;28;20492;-70
2023/10/08 02:22:11;;;;;;;22.25;13.02;;;;;;;;;;5090852;28;20036;-69
2023/10/08 02:24:38;;;;;;;19.45;12.75;;;;;;;;;;5091059;28;20032;-69
2023/10/08 02:27:06;;;;;;;19.40;12.35;;;;;;;;;;5092154;28;20437;-71
2023/10/08 02:29:32;;;;;;;18.90;12.13;;;;;;;;;;5090849;28;20020;-71
2023/10/08 02:31:59;;;;;;;18.23;12.50;;;;;;;;;;5091002;28;20035;-70
2023/10/08 02:34:25;;;;;;;19.35;12.23;;;;;;;;;;5091940;28;20019;-70
2023/10/08 02:36:51;;;;;;;18.35;11.18;;;;;;;;;;5089648;28;20055;-70
2023/10/08 02:39:21;;;;;;;17.02;11.60;;;;;;;;;;5090988;28;20493;-70
2023/10/08 02:41:48;;;;;;;16.17;10.73;;;;;;;;;;5092087;28;20588;-70
2023/10/08 02:44:16;;;;;;;21.02;11.68;;;;;;;;;;5106692;28;20036;-70
2023/10/08 02:46:47;;;;;;;16.48;11.52;;;;;;;;;;5090677;28;20032;-70
2023/10/08 02:49:20;;;;;;;25.98;12.50;;;;;;;;;;5090524;28;20059;-71
2023/10/08 02:51:47;;;;;;;17.08;10.98;;;;;;;;;;5091082;28;20039;-71
2023/10/08 02:54:20;;;;;;;16.50;11.25;;;;;;;;;;5090738;28;20438;-71
2023/10/08 02:56:57;;;;;;;17.13;11.95;;;;;;;;;;5087248;28;20035;-71
2023/10/08 02:59:24;;;;;;;19.25;12.50;;;;;;;;;;5090445;28;20036;-70
2023/10/08 03:01:55;;;;;;;19.13;11.48;;;;;;;;;;5105879;28;20447;-71
2023/10/08 03:04:22;;;;;;;18.33;11.02;;;;;;;;;;5103567;28;20039;-71
2023/10/08 03:06:52;;;;;;;20.98;10.98;;;;;;;;;;5086168;28;20036;-70
2023/10/08 03:09:21;;;;;;;18.48;11.90;;;;;;;;;;5086663;28;20047;-69
2023/10/08 03:11:48;;;;;;;17.17;11.60;;;;;;;;;;5086392;28;20035;-71
2023/10/08 03:14:21;;;;;;;18.80;11.30;;;;;;;;;;5086290;28;20040;-70
2023/10/08 03:16:52;;;;;;;18.10;11.15;;;;;;;;;;5086066;28;20043;-70
2023/10/08 03:19:21;;;;;;;21.50;11.45;;;;;;;;;;5103523;28;20035;-70
2023/10/08 03:21:50;;;;;;;25.42;11.88;;;;;;;;;;5086356;28;20081;-70
2023/10/08 03:27:15;;;;;;;21.23;15.13;;;;;;;;;;5085460;28;20554;-70
2023/10/08 03:29:41;;;;;;;27.23;15.90;;;;;;;;;;5102934;28;20028;-70
2023/10/08 03:32:17;;;;;;;23.00;15.65;;;;;;;;;;5085750;28;20024;-71
2023/10/08 03:34:47;;;;;;;;;;;;;;;;;;5086674;28;20043;-70
2023/10/08 03:37:21;;;;;;;26.52;15.90;;;;;;;;;;5086446;28;19977;-69
2023/10/08 03:40:51;;;;;;;27.23;16.10;;;;;;;;;;5087480;28;20560;-70
2023/10/08 03:42:49;;;;;;;23.42;16.05;;;;;;;;;;5083074;28;20123;-70
2023/10/08 03:45:22;;;;;;;32.38;16.25;;;;;;;;;;5087344;28;20081;-70
2023/10/08 03:48:03;;;;;;;30.95;16.33;;;;;;;;;;5087966;28;20597;-71
2023/10/08 03:50:56;;;;;;;26.90;17.13;;;;;;;;;;5088052;28;20040;-71
2023/10/08 03:53:16;;;;;;;25.35;16.63;;;;;;;;;;5086869;28;20051;-71
2023/10/08 03:55:42;;;;;;;28.83;16.17;;;;;;;;;;5087370;28;20023;-70
2023/10/08 03:58:27;;;;;;;24.02;16.70;;;;;;;;;;5087119;28;20036;-70
2023/10/08 04:01:08;;;;;;;24.00;15.85;;;;;;;;;;5087519;28;20047;-70
2023/10/08 04:11:49;;;;;;;24.48;15.00;;;;;;;;;;5087166;28;20028;-70
2023/10/08 04:14:18;;;;;;;24.33;15.05;;;;;;;;;;5101222;28;20063;-70
2023/10/08 04:16:44;;;;;;;23.08;14.20;;;;;;;;;;5086763;28;20053;-70
2023/10/08 04:19:11;;;;;;;24.48;15.35;;;;;;;;;;5087141;28;20442;-71
2023/10/08 04:21:39;;;;;;;26.15;15.45;;;;;;;;;;5087536;28;20046;-70
2023/10/08 04:24:06;;;;;;;25.67;14.35;;;;;;;;;;5086602;28;20035;-71
2023/10/08 04:26:32;;;;;;;20.67;13.13;;;;;;;;;;5087024;28;20461;-70
2023/10/08 04:29:02;;;;;;;24.20;13.10;;;;;;;;;;5085765;28;20438;-70
2023/10/08 04:31:43;;;;;;;19.23;12.35;;;;;;;;;;5087908;28;20397;-69
2023/10/08 04:34:16;;;;;;;21.45;14.00;;;;;;;;;;5088515;28;20413;-71
2023/10/08 04:36:45;;;;;;;20.55;12.57;;;;;;;;;;5082669;28;20185;-71
2023/10/08 04:39:14;;;;;;;21.67;12.73;;;;;;;;;;5088240;28;20031;-71
2023/10/08 04:41:42;;;;;;;18.80;12.80;;;;;;;;;;5073243;28;20044;-70
2023/10/08 04:44:14;;;;;;;16.33;11.52;;;;;;;;;;5091165;28;20032;-70
2023/10/08 04:46:47;;;;;;;19.55;11.57;;;;;;;;;;5083263;28;20638;-71
2023/10/08 04:49:34;;;;;;;16.77;11.73;;;;;;;;;;5091575;28;20028;-71
2023/10/08 04:52:16;;;;;;;17.00;11.68;;;;;;;;;;5091204;28;20047;-71
2023/10/08 04:54:51;;;;;;;17.50;10.88;;;;;;;;;;5083690;28;20060;-72
2023/10/08 04:57:18;;;;;;;18.00;10.90;;;;;;;;;;5090932;28;20047;-71
2023/10/08 04:59:46;;;;;;;16.95;11.50;;;;;;;;;;5091283;28;20020;-70
2023/10/08 05:08:00;;;;;;;16.67;11.05;;;;;;;;;;5094674;28;20107;-71
2023/10/08 05:15:41;;;;;;;16.20;10.50;;;;;;;;;;5094665;28;20032;-72
2023/10/08 05:21:02;;;;;;;14.48;9.05;;;;;;;;;;5078032;28;20051;-70
2023/10/08 05:26:21;;;;;;;18.52;9.85;;;;;;;;;;5093910;28;20498;-71
2023/10/08 05:29:04;;;;;;;18.30;10.13;;;;;;;;;;5092024;28;20032;-71
2023/10/08 05:34:16;;;;;;;13.00;9.35;;;;;;;;;;5106529;28;20126;-71
2023/10/08 05:36:50;;;;;;;16.60;9.43;;;;;;;;;;5091453;28;20027;-71
2023/10/08 05:45:13;;;;;;;16.13;9.63;;;;;;;;;;5091184;28;20452;-71
2023/10/08 05:52:53;;;;;;;20.63;10.60;;;;;;;;;;5091363;28;20115;-71
2023/10/08 05:55:26;;;;;;;17.65;10.88;;;;;;;;;;5090303;28;20028;-71
2023/10/08 05:58:04;;;;;;;12.77;9.55;;;;;;;;;;5092672;28;20047;-71
2023/10/08 06:00:46;;;;;;;16.70;10.57;;;;;;;;;;5092668;28;20452;-71
2023/10/08 06:03:31;;;;;;;15.25;10.60;;;;;;;;;;5090969;28;20032;-71
2023/10/08 06:11:44;;;;;;;15.45;10.60;;;;;;;;;;5050307;28;20044;-71
2023/10/08 06:14:16;;;;;;;16.15;11.25;;;;;;;;;;5072872;28;20028;-71
2023/10/08 06:16:44;;;;;;;16.13;9.50;;;;;;;;;;5073052;28;20094;-71
2023/10/08 06:19:14;;;;;;;14.02;9.60;;;;;;;;;;5072919;28;20108;-71
2023/10/08 06:21:41;;;;;;;16.05;11.25;;;;;;;;;;5073275;28;20474;-71
2023/10/08 06:24:16;;;;;;;18.33;11.98;;;;;;;;;;5072957;28;20055;-71
2023/10/08 06:26:42;;;;;;;18.13;12.45;;;;;;;;;;5072713;28;20081;-70
2023/10/08 06:29:18;;;;;;;23.27;13.07;;;;;;;;;;5072870;28;20099;-71
2023/10/08 06:31:51;;;;;;;18.58;12.77;;;;;;;;;;5072662;28;20170;-71
2023/10/08 06:34:21;;;;;;;18.55;13.30;;;;;;;;;;5072391;28;20081;-71
2023/10/08 06:36:50;;;;;;;27.35;15.05;;;;;;;;;;5072409;28;20066;-71
2023/10/08 06:39:18;;;;;;;23.42;14.35;;;;;;;;;;5072743;28;20029;-70
2023/10/08 06:41:46;;;;;;;27.02;13.50;;;;;;;;;;5073043;28;20039;-71
2023/10/08 06:44:15;;;;;;;22.98;13.98;;;;;;;;;;5072505;28;20032;-71
2023/10/08 06:46:41;;;;;;;23.55;13.05;;;;;;;;;;5072296;28;20548;-70
2023/10/08 06:49:11;;;;;;;18.77;12.13;;;;;;;;;;5072289;28;20119;-70
2023/10/08 06:51:44;;;;;;;19.23;12.57;;;;;;;;;;5072483;28;20033;-72
2023/10/08 06:54:13;;;;;;;20.80;12.90;;;;;;;;;;5072219;28;20025;-71
2023/10/08 06:56:39;;;;;;;22.50;12.68;;;;;;;;;;5091177;28;20042;-71
2023/10/08 06:59:09;;;;;;;19.30;12.45;;;;;;;;;;5091170;28;20397;-70
2023/10/08 07:01:39;;;;;;;21.02;13.88;;;;;;;;;;5092301;28;20085;-70
2023/10/08 07:04:06;;;;;;;18.65;12.85;;;;;;;;;;5091969;28;20047;-71
2023/10/08 07:06:37;;;;;;;20.52;12.95;;;;;;;;;;5092362;28;20020;-70
2023/10/08 07:09:06;;;;;;;25.83;12.80;;;;;;;;;;5092332;28;20028;-70
2023/10/08 07:11:39;;;;;;;16.02;11.00;;;;;;;;;;5092245;28;20455;-70
2023/10/08 07:14:05;;;;;;;16.05;10.98;;;;;;;;;;5092540;28;20096;-70
2023/10/08 07:16:32;;;;;;;15.27;9.88;;;;;;;;;;5091722;28;20552;-71
2023/10/08 07:19:03;;;;;;;15.52;10.40;;;;;;;;;;5092149;28;20367;-70
2023/10/08 07:21:38;;;;;;;16.77;11.40;;;;;;;;;;5092255;28;20047;-70
2023/10/08 07:24:09;;;;;;;17.40;9.82;;;;;;;;;;5091540;28;20115;-71
2023/10/08 07:26:39;;;;;;;16.58;10.75;;;;;;;;;;5092207;28;20036;-70
2023/10/08 07:29:09;;;;;;;13.85;10.15;;;;;;;;;;5092037;28;20032;-70
2023/10/08 07:31:36;;;;;;;19.80;10.40;;;;;;;;;;5091023;28;20497;-69
2023/10/08 07:34:16;;;;;;;16.38;10.70;;;;;;;;;;5089923;28;20024;-71
2023/10/08 07:36:43;;;;;;;14.48;9.80;;;;;;;;;;5088578;28;20036;-70
2023/10/08 07:39:22;;;;;;;17.70;10.70;;;;;;;;;;5089999;28;20032;-70
2023/10/08 07:41:49;;;;;;;20.85;11.07;;;;;;;;;;5091935;28;20043;-70
2023/10/08 07:44:15;;;;;;;14.35;9.75;;;;;;;;;;5091302;28;20027;-69
2023/10/08 07:46:41;;;;;;;15.32;10.18;;;;;;;;;;5091315;28;20043;-69
2023/10/08 07:49:07;;;;;;;15.40;9.57;;;;;;;;;;5091516;28;20020;-69
2023/10/08 07:51:34;;;;;;;15.73;9.93;;;;;;;;;;5091503;28;20049;-71
2023/10/08 07:53:59;;;;;;;16.95;8.98;;;;;;;;;;5089998;28;20111;-70
2023/10/08 07:56:26;;;;;;;14.05;10.18;;;;;;;;;;5091290;28;20107;-69
2023/10/08 07:58:52;;;;;;;13.48;9.77;;;;;;;;;;5090245;28;20031;-70
2023/10/08 08:01:20;;;;;;;20.92;10.70;;;;;;;;;;5091382;28;20446;-69
2023/10/08 08:03:48;;;;;;;13.88;9.18;;;;;;;;;;5090923;28;20461;-70
2023/10/08 08:06:15;;;;;;;15.02;9.95;;;;;;;;;;5091123;28;20055;-69
2023/10/08 08:08:41;;;;;;;16.27;10.55;;;;;;;;;;5091135;28;20027;-70
2023/10/08 08:11:18;;;;;;;18.35;10.52;;;;;;;;;;5091499;28;20113;-70
2023/10/08 08:13:46;;;;;;;16.45;11.18;;;;;;;;;;5091482;28;20457;-70
2023/10/08 08:16:20;;;;;;;15.20;10.27;;;;;;;;;;5090950;28;20059;-70
2023/10/08 08:18:51;;;;;;;21.42;11.80;;;;;;;;;;5089315;28;20370;-70
2023/10/08 08:21:19;;;;;;;28.23;11.05;;;;;;;;;;5091327;28;20525;-70
2023/10/08 08:23:48;;;;;;;13.55;10.60;;;;;;;;;;5091044;28;20209;-70
2023/10/08 08:26:28;;;;;;;22.23;11.90;;;;;;;;;;5090463;28;20227;-69
2023/10/08 08:29:01;;;;;;;19.92;12.32;;;;;;;;;;5090602;28;20039;-70
2023/10/08 08:31:31;;;;;;;21.95;12.68;;;;;;;;;;5091011;28;20035;-70
2023/10/08 08:34:13;;;;;;;19.10;12.93;;;;;;;;;;5091259;28;20036;-70
2023/10/08 08:36:46;;;;;;;18.77;12.45;;;;;;;;;;5093255;28;20040;-70
2023/10/08 08:39:28;;;;;;;16.87;11.40;;;;;;;;;;5094761;28;20036;-69
2023/10/08 08:42:06;;;;;;;17.45;12.63;;;;;;;;;;5094672;28;20734;-71
2023/10/08 08:44:39;;;;;;;23.38;12.82;;;;;;;;;;5093604;28;20397;-70
2023/10/08 08:47:06;;;;;;;19.73;11.98;;;;;;;;;;5094668;28;20035;-70
2023/10/08 08:49:39;;;;;;;18.02;12.25;;;;;;;;;;5094678;28;20036;-70
2023/10/08 08:52:05;;;;;;;20.58;12.50;;;;;;;;;;5094607;28;20405;-70
2023/10/08 08:54:30;;;;;;;20.52;12.63;;;;;;;;;;5094676;28;20034;-70
2023/10/08 08:57:04;;;;;;;20.67;12.50;;;;;;;;;;5094490;28;20409;-69
2023/10/08 08:59:30;;;;;;;20.98;12.18;;;;;;;;;;5094255;28;20054;-70
2023/10/08 09:02:00;;;;;;;21.25;12.38;;;;;;;;;;5094277;28;20028;-70
2023/10/08 09:04:32;;;;;;;19.08;13.00;;;;;;;;;;5094098;28;20035;-70
2023/10/08 09:07:04;;;;;;;19.90;12.75;;;;;;;;;;5092347;28;20047;-70
2023/10/08 09:09:37;;;;;;;19.52;11.27;;;;;;;;;;5094290;28;20043;-70
2023/10/08 09:12:04;;;;;;;18.40;10.70;;;;;;;;;;5093834;28;20043;-70
2023/10/08 09:14:34;;;;;;;15.30;10.65;;;;;;;;;;5093702;28;20077;-70
2023/10/08 09:17:04;;;;;;;19.05;10.70;;;;;;;;;;5093520;28;20474;-70
2023/10/08 09:19:30;;;;;;;19.13;11.50;;;;;;;;;;5093877;28;20058;-70
2023/10/08 09:22:11;;;;;;;15.50;9.45;;;;;;;;;;5093950;28;20072;-70
2023/10/08 09:24:39;;;;;;;17.23;11.90;;;;;;;;;;5093736;28;20515;-69
2023/10/08 09:27:06;;;;;;;18.48;11.02;;;;;;;;;;5093711;28;20103;-70
2023/10/08 09:29:39;;;;;;;13.68;8.75;;;;;;;;;;5094256;28;20036;-70
2023/10/08 09:32:08;;;;;;;13.50;9.07;;;;;;;;;;5094038;28;20032;-70
2023/10/08 09:34:34;;;;;;;15.35;9.68;;;;;;;;;;5093589;28;20032;-70
2023/10/08 09:37:01;;;;;;;18.58;11.20;;;;;;;;;;5093108;28;20028;-70
2023/10/08 09:39:34;;;;;;;16.95;9.95;;;;;;;;;;5093388;28;20082;-70
2023/10/08 09:42:11;;;;;;;12.30;9.07;;;;;;;;;;5076151;28;20051;-70
2023/10/08 09:44:37;;;;;;;16.05;9.25;;;;;;;;;;5093396;28;20052;-71
2023/10/08 09:47:09;;;;;;;16.25;10.40;;;;;;;;;;5093732;28;20105;-72
2023/10/08 09:49:56;;;;;;;13.18;9.35;;;;;;;;;;5093546;28;20036;-72
2023/10/08 09:52:27;;;;;;;15.55;10.70;;;;;;;;;;5093365;28;20032;-71
2023/10/08 09:55:03;;;;;;;15.57;9.20;;;;;;;;;;5093439;28;20042;-70
2023/10/08 09:57:30;;;;;;;12.85;9.13;;;;;;;;;;5092943;28;20043;-70
2023/10/08 09:59:59;;;;;;;12.52;8.55;;;;;;;;;;5093302;28;20031;-70
2023/10/08 10:02:27;;;;;;;14.07;8.60;;;;;;;;;;5093007;28;20031;-70
2023/10/08 10:04:55;;;;;;;13.35;8.43;;;;;;;;;;5092818;28;20069;-70
2023/10/08 10:07:22;;;;;;;14.77;9.38;;;;;;;;;;5092612;28;20044;-71
2023/10/08 10:09:53;;;;;;;13.05;8.40;;;;;;;;;;5092576;28;20020;-70
2023/10/08 10:12:25;;;;;;;11.40;8.38;;;;;;;;;;5092821;28;20027;-71
2023/10/08 10:14:56;;;;;;;13.60;8.40;;;;;;;;;;5092804;28;20522;-69
2023/10/08 10:17:28;;;;;;;12.23;9.30;;;;;;;;;;5092894;28;20036;-70
2023/10/08 10:20:00;;;;;;;15.20;9.10;;;;;;;;;;5093138;28;20452;-70
2023/10/08 10:22:33;;;;;;;13.38;9.13;;;;;;;;;;5092903;28;20181;-69
2023/10/08 10:25:16;;;;;;;13.10;8.55;;;;;;;;;;5092570;28;20392;-70
2023/10/08 10:28:06;;;;;;;12.07;9.02;;;;;;;;;;5092510;28;20031;-71
2023/10/08 10:30:32;;;;;;;12.63;8.38;;;;;;;;;;5092790;28;20032;-71
2023/10/08 10:33:01;;;;;;;14.98;8.23;;;;;;;;;;5092562;28;20465;-70
2023/10/08 10:35:27;;;;;;;16.90;10.77;;;;;;;;;;5092085;28;20567;-71
2023/10/08 10:37:55;;;;;;;16.23;9.82;;;;;;;;;;5090732;28;20099;-72
2023/10/08 10:40:46;;;;;;;16.15;12.00;;;;;;;;;;5092489;28;20058;-71
2023/10/08 10:43:15;;;;;;;12.40;7.30;;;;;;;;;;5092207;28;20040;-71
2023/10/08 10:45:46;;;;;;;12.50;7.70;;;;;;;;;;5091242;28;20081;-70
2023/10/08 10:48:21;;;;;;;12.05;7.57;;;;;;;;;;5091926;28;20093;-71
2023/10/08 10:51:07;;;;;;;13.68;8.00;;;;;;;;;;5092860;28;20116;-70
2023/10/08 10:53:44;;;;;;;12.63;7.20;;;;;;;;;;5092536;28;20039;-70
2023/10/08 10:56:18;;;;;;;14.50;9.50;;;;;;;;;;5092072;28;20118;-70
2023/10/08 10:58:53;;;;;;;13.10;8.30;;;;;;;;;;5091302;28;20042;-70
2023/10/08 11:01:29;;;;;;;12.32;8.15;;;;;;;;;;5091971;28;20035;-71
2023/10/08 11:03:59;;;;;;;11.75;8.73;;;;;;;;;;5092149;28;20062;-71
2023/10/08 11:06:26;;;;;;;18.05;8.77;;;;;;;;;;5091798;28;20040;-70
2023/10/08 11:08:53;;;;;;;12.23;7.10;;;;;;;;;;5092572;28;20016;-71
2023/10/08 11:11:31;;;;;;;11.88;7.22;;;;;;;;;;5091559;28;20197;-71
2023/10/08 11:14:00;;;;;;;14.40;7.82;;;;;;;;;;5089685;28;20130;-72
2023/10/08 11:16:26;;;;;;;11.32;7.65;;;;;;;;;;5090094;28;20209;-71
2023/10/08 11:18:57;;;;;;;11.73;7.85;;;;;;;;;;5091532;28;20044;-70
2023/10/08 11:21:24;;;;;;;13.45;9.07;;;;;;;;;;5091614;28;20032;-69
2023/10/08 11:23:55;;;;;;;12.52;7.38;;;;;;;;;;5091165;28;20426;-71
2023/10/08 11:26:32;;;;;;;14.63;7.57;;;;;;;;;;5091738;28;20055;-70
2023/10/08 11:29:03;;;;;;;15.70;7.55;;;;;;;;;;5091842;28;20081;-70
2023/10/08 11:31:29;;;;;;;16.50;9.40;;;;;;;;;;5092001;28;20495;-70
2023/10/08 11:34:08;;;;;;;20.63;9.82;;;;;;;;;;5091198;28;20024;-70
2023/10/08 11:36:48;;;;;;;11.20;7.25;;;;;;;;;;5072020;28;20111;-70
2023/10/08 11:39:21;;;;;;;10.38;7.18;;;;;;;;;;5090030;28;20116;-72
2023/10/08 11:42:06;;;;;;;11.45;8.32;;;;;;;;;;5091606;28;20028;-69
2023/10/08 11:44:35;;;;;;;14.48;8.23;;;;;;;;;;5091310;28;20107;-69
2023/10/08 11:47:13;;;;;;;10.45;7.57;;;;;;;;;;5091290;28;20107;-69
2023/10/08 11:49:47;;;;;;;16.95;7.78;;;;;;;;;;5091471;28;20040;-70
2023/10/08 11:52:16;;;;;;;12.63;7.78;;;;;;;;;;5090886;28;20157;-72
2023/10/08 11:54:48;;;;;;;14.30;7.55;;;;;;;;;;5090958;28;20020;-70
2023/10/08 11:57:14;;;;;;;13.10;8.40;;;;;;;;;;5090703;28;20036;-70
2023/10/08 11:59:39;;;;;;;12.27;7.47;;;;;;;;;;5091422;28;20020;-70
2023/10/08 12:02:16;;;;;;;10.15;6.93;;;;;;;;;;5091469;28;20070;-70
2023/10/08 12:04:44;;;;;;;15.38;8.10;;;;;;;;;;5091072;28;20024;-70
2023/10/08 12:07:11;;;;;;;17.85;7.28;;;;;;;;;;5091292;28;20036;-70
2023/10/08 12:09:40;;;;;;;12.25;7.18;;;;;;;;;;5091656;28;20032;-70
2023/10/08 12:12:13;;;;;;;13.68;7.32;;;;;;;;;;5095072;28;20500;-70
2023/10/08 12:14:39;;;;;;;14.00;7.10;;;;;;;;;;5095394;28;20119;-71
2023/10/08 12:17:11;;;;;;;13.23;7.15;;;;;;;;;;5095056;28;20115;-71
2023/10/08 12:19:40;;;;;;;11.52;7.30;;;;;;;;;;5095388;28;20036;-70
2023/10/08 12:22:07;;;;;;;13.20;9.40;;;;;;;;;;5094977;28;20023;-69
2023/10/08 12:24:33;;;;;;;14.50;9.27;;;;;;;;;;5095361;28;20496;-70
2023/10/08 12:26:59;;;;;;;12.32;8.35;;;;;;;;;;5094900;28;20068;-71
2023/10/08 12:29:26;;;;;;;11.02;6.95;;;;;;;;;;5095151;28;20040;-68
2023/10/08 12:31:53;;;;;;;12.63;7.65;;;;;;;;;;5095255;28;20125;-69
2023/10/08 12:34:19;;;;;;;13.30;6.22;;;;;;;;;;5094360;28;20032;-71
2023/10/08 12:36:47;;;;;;;10.68;6.32;;;;;;;;;;5093517;28;20062;-70
2023/10/08 12:39:16;;;;;;;11.35;6.85;;;;;;;;;;5089974;28;20048;-70
2023/10/08 12:41:43;;;;;;;10.10;6.60;;;;;;;;;;5074745;28;20025;-70
2023/10/08 12:44:10;;;;;;;10.25;5.82;;;;;;;;;;5073707;28;20040;-70
2023/10/08 12:46:36;;;;;;;10.55;6.65;;;;;;;;;;5074449;28;20024;-72
2023/10/08 12:49:02;;;;;;;10.25;6.53;;;;;;;;;;5074486;28;20032;-71
2023/10/08 12:51:32;;;;;;;18.38;7.57;;;;;;;;;;5074726;28;20082;-70
2023/10/08 12:54:21;;;;;;;11.30;6.47;;;;;;;;;;5074436;28;20035;-71
2023/10/08 12:56:54;;;;;;;9.50;6.35;;;;;;;;;;5073850;28;20037;-70
2023/10/08 12:59:20;;;;;;;14.02;6.10;;;;;;;;;;5073695;28;20056;-69
2023/10/08 13:01:55;;;;;;;10.52;5.95;;;;;;;;;;5079938;28;20086;-70
2023/10/08 13:04:28;;;;;;;9.18;6.28;;;;;;;;;;5094112;28;20033;-71
2023/10/08 13:07:00;;;;;;;9.52;6.35;;;;;;;;;;5094457;28;20036;-72
2023/10/08 13:09:26;;;;;;;;;;;;;;;;;;5094140;28;20458;-71
2023/10/08 13:11:52;;;;;;;14.38;6.35;;;;;;;;;;5094057;28;19990;-70
2023/10/08 13:14:22;;;;;;;10.77;6.50;;;;;;;;;;5094075;28;20032;-71
2023/10/08 13:16:49;;;;;;;8.98;6.32;;;;;;;;;;5093858;28;20452;-71
2023/10/08 13:19:15;;;;;;;14.80;6.43;;;;;;;;;;5094297;28;20036;-72
2023/10/08 13:21:41;;;;;;;10.60;6.93;;;;;;;;;;5092041;28;20056;-71
2023/10/08 13:24:08;;;;;;;10.55;6.93;;;;;;;;;;5093918;28;20059;-71
2023/10/08 13:26:37;;;;;;;16.65;7.32;;;;;;;;;;5093736;28;20023;-70
2023/10/08 13:29:03;;;;;;;12.77;6.82;;;;;;;;;;5094043;28;20024;-71
2023/10/08 13:31:29;;;;;;;16.75;9.85;;;;;;;;;;5093521;28;20389;-70
2023/10/08 13:33:57;;;;;;;11.70;6.15;;;;;;;;;;5093451;28;20080;-70
2023/10/08 13:36:25;;;;;;;13.20;6.13;;;;;;;;;;5093676;28;20069;-70
2023/10/08 13:38:51;;;;;;;9.55;6.10;;;;;;;;;;5093721;28;20032;-71
2023/10/08 13:41:18;;;;;;;10.50;6.10;;;;;;;;;;5093458;28;20058;-71
2023/10/08 13:43:47;;;;;;;10.85;6.50;;;;;;;;;;5093183;28;20412;-71
2023/10/08 13:46:17;;;;;;;9.60;6.15;;;;;;;;;;5092325;28;20099;-71
2023/10/08 13:48:53;;;;;;;17.40;6.43;;;;;;;;;;5092070;28;20024;-71
2023/10/08 13:51:23;;;;;;;12.43;6.70;;;;;;;;;;5091407;28;20047;-70
2023/10/08 13:53:53;;;;;;;12.82;6.65;;;;;;;;;;5092169;28;20039;-71
2023/10/08 13:56:24;;;;;;;13.55;6.55;;;;;;;;;;5093274;28;20055;-71
2023/10/08 13:58:55;;;;;;;12.43;6.80;;;;;;;;;;5090861;28;20038;-70
2023/10/08 14:01:21;;;;;;;14.45;7.20;;;;;;;;;;5093272;28;20378;-71
2023/10/08 14:03:48;;;;;;;10.38;7.20;;;;;;;;;;5089048;28;20085;-71
2023/10/08 14:06:16;;;;;;;11.90;6.05;;;;;;;;;;5091091;28;20374;-73
2023/10/08 14:08:51;;;;;;;10.23;6.72;;;;;;;;;;5092602;28;20477;-70
2023/10/08 14:11:23;;;;;;;9.82;6.38;;;;;;;;;;5092978;28;20232;-71
2023/10/08 14:13:53;;;;;;;10.43;5.80;;;;;;;;;;5092665;28;20032;-70
2023/10/08 14:16:23;;;;;;;10.25;6.20;;;;;;;;;;5090848;28;20101;-70
2023/10/08 14:18:53;;;;;;;10.75;5.90;;;;;;;;;;5090974;28;20460;-71
2023/10/08 14:21:23;;;;;;;10.35;6.28;;;;;;;;;;5092299;28;20020;-70
2023/10/08 14:23:52;;;;;;;11.00;5.60;;;;;;;;;;5101492;28;20542;-70
2023/10/08 14:26:21;;;;;;;10.20;5.63;;;;;;;;;;5094285;28;20016;-71
2023/10/08 14:28:54;;;;;;;8.50;5.80;;;;;;;;;;5090204;28;20115;-70
2023/10/08 14:31:24;;;;;;;9.68;5.97;;;;;;;;;;5092061;28;20063;-71
2023/10/08 14:34:05;;;;;;;10.30;5.97;;;;;;;;;;5111161;28;20051;-70
2023/10/08 14:44:50;;;;;;;11.48;6.70;;;;;;;;;;5114594;28;20028;-70
2023/10/08 14:47:16;;;;;;;9.45;6.13;;;;;;;;;;5116025;28;20107;-70
2023/10/08 14:49:43;;;;;;;10.98;6.18;;;;;;;;;;5107030;28;20056;-70
2023/10/08 14:52:09;;;;;;;10.95;6.30;;;;;;;;;;5092076;28;20458;-71
2023/10/08 14:54:42;;;;;;;9.65;5.78;;;;;;;;;;5068705;28;20417;-70
2023/10/08 14:57:09;;;;;;;9.65;6.10;;;;;;;;;;5068239;28;20058;-71
2023/10/08 14:59:36;;;;;;;12.15;5.95;;;;;;;;;;5066297;28;20119;-71
2023/10/08 15:02:01;;;;;;;11.38;5.65;;;;;;;;;;5067947;28;20079;-69
2023/10/08 15:04:28;;;;;;;10.18;6.38;;;;;;;;;;5067172;28;20017;-71
2023/10/08 15:06:57;;;;;;;10.68;5.53;;;;;;;;;;5068316;28;20051;-71
2023/10/08 15:09:23;;;;;;;9.50;5.25;;;;;;;;;;5067486;28;20029;-70
2023/10/08 15:11:53;;;;;;;8.98;5.50;;;;;;;;;;5067423;28;20028;-71
2023/10/08 15:14:26;;;;;;;7.10;5.10;;;;;;;;;;5067887;28;20025;-70
2023/10/08 15:16:52;;;;;;;6.68;4.70;;;;;;;;;;5068100;28;20399;-72
2023/10/08 15:19:22;;;;;;;10.80;6.03;;;;;;;;;;5067891;28;20031;-70
2023/10/08 15:21:51;;;;;;;14.68;6.82;;;;;;;;;;5033307;28;20182;-70
2023/10/08 15:24:21;;;;;;;12.73;6.13;;;;;;;;;;5003247;28;20415;-70
2023/10/08 15:26:52;;;;;;;13.13;5.95;;;;;;;;;;5000152;28;20042;-70
2023/10/08 15:29:20;;;;;;;8.68;5.70;;;;;;;;;;4999912;28;20485;-70
2023/10/08 15:31:46;;;;;;;11.48;5.53;;;;;;;;;;4994809;28;20038;-71
2023/10/08 15:34:12;;;;;;;12.68;6.70;;;;;;;;;;4994031;28;20034;-70
2023/10/08 15:36:39;;;;;;;15.15;6.90;;;;;;;;;;4988059;28;20030;-71
2023/10/08 15:39:05;;;;;;;10.32;5.60;;;;;;;;;;4996209;28;20049;-70
2023/10/08 15:41:31;;;;;;;10.48;5.13;;;;;;;;;;4999036;28;20022;-69
2023/10/08 15:43:58;;;;;;;13.75;7.03;;;;;;;;;;4992710;28;20035;-70